Time;durP1;ratioP1;P1;durP2;ratioP2;P2;SDS_P1;SDS_P2;PMS_P1;PMS_P2;Temp;Humidity;BMP_temperature;BMP_pressure;BME280_temperature;BME280_humidity;BME280_pressure;Samples;Min_cycle;Max_cycle;Signal;HPM_P1;HPM_P2
2023/01/27 00:02:35;;;;;;;37.70;23.00;;;;;;;-0.23;80.16;100935.55;214299;1264;75265;-71
2023/01/27 00:07:30;;;;;;;35.00;22.30;;;;;;;-0.24;80.11;100937.34;214433;1263;72419;-72
2023/01/27 00:17:37;;;;;;;34.10;21.70;;;;;;;-0.24;80.47;100941.97;214401;1263;65833;-72
2023/01/27 00:28:24;;;;;;;38.70;22.40;;;;;;;-0.24;80.55;100953.67;214503;1263;73795;-72
2023/01/27 00:33:26;;;;;;;42.20;25.50;;;;;;;-0.26;80.54;100955.13;214766;1264;72355;-72
2023/01/27 00:38:20;;;;;;;40.80;23.10;;;;;;;-0.26;80.59;100965.14;214677;1263;61488;-73
2023/01/27 00:43:13;;;;;;;35.80;21.20;;;;;;;-0.25;80.67;100960.08;214549;1263;67022;-72
2023/01/27 00:48:06;;;;;;;40.70;23.40;;;;;;;-0.25;80.58;100962.81;214457;1263;61326;-72
2023/01/27 00:53:01;;;;;;;45.10;26.70;;;;;;;-0.26;80.99;100965.16;214457;1264;61285;-72
2023/01/27 00:57:53;;;;;;;35.80;22.70;;;;;;;-0.24;80.91;100967.30;214439;1262;71581;-71
2023/01/27 01:02:47;;;;;;;40.70;25.10;;;;;;;-0.27;81.06;100968.64;214559;1263;61272;-72
2023/01/27 01:07:39;;;;;;;44.10;26.10;;;;;;;-0.27;81.01;100967.44;214492;1264;65567;-72
2023/01/27 01:12:32;;;;;;;48.40;28.00;;;;;;;-0.27;81.24;100964.89;214511;1264;61405;-72
2023/01/27 01:17:25;;;;;;;50.30;27.90;;;;;;;-0.28;81.12;100963.46;214394;1264;61266;-72
2023/01/27 01:22:18;;;;;;;53.50;31.10;;;;;;;-0.30;81.04;100965.90;214422;1264;61365;-72
2023/01/27 01:27:12;;;;;;;48.40;30.00;;;;;;;-0.30;81.32;100963.19;214602;1265;61301;-72
2023/01/27 01:32:08;;;;;;;47.80;27.40;;;;;;;-0.31;81.21;100962.91;214389;1264;67780;-72
2023/01/27 01:37:01;;;;;;;52.50;29.30;;;;;;;-0.30;81.41;100957.24;214568;1262;61460;-72
2023/01/27 01:41:54;;;;;;;42.00;27.50;;;;;;;-0.31;81.26;100956.49;214387;1265;61251;-72
2023/01/27 01:46:47;;;;;;;52.20;29.60;;;;;;;-0.33;81.24;100959.59;214516;1264;61359;-72
2023/01/27 01:51:45;;;;;;;52.50;31.00;;;;;;;-0.33;81.33;100959.95;214668;1263;61268;-72
2023/01/27 01:56:55;;;;;;;48.00;28.80;;;;;;;-0.31;81.37;100955.94;214547;1264;65805;-72
2023/01/27 02:01:50;;;;;;;47.40;29.20;;;;;;;-0.32;81.45;100956.58;214479;1264;61385;-72
2023/01/27 02:06:52;;;;;;;60.60;31.90;;;;;;;-0.31;81.49;100952.59;214611;1265;74461;-72
2023/01/27 02:11:46;;;;;;;54.20;31.60;;;;;;;-0.32;81.26;100948.89;214411;1263;70414;-72
2023/01/27 02:16:40;;;;;;;47.90;30.20;;;;;;;-0.32;81.37;100943.27;214537;1263;61248;-72
2023/01/27 02:21:34;;;;;;;48.90;30.00;;;;;;;-0.33;81.43;100944.23;214656;1263;66711;-72
2023/01/27 02:26:40;;;;;;;47.10;28.70;;;;;;;-0.32;81.47;100950.65;214499;1264;61308;-72
2023/01/27 02:31:33;;;;;;;53.10;32.00;;;;;;;-0.33;81.47;100955.49;214430;1263;74764;-72
2023/01/27 02:36:28;;;;;;;52.60;30.80;;;;;;;-0.32;81.67;100958.10;214532;1263;72586;-73
2023/01/27 02:41:33;;;;;;;58.50;32.30;;;;;;;-0.32;81.56;100957.45;214392;1264;61276;-72
2023/01/27 02:46:27;;;;;;;56.80;32.40;;;;;;;-0.30;81.81;100955.34;214510;1264;65103;-73
2023/01/27 02:51:20;;;;;;;54.00;31.90;;;;;;;-0.28;81.60;100953.08;214514;1263;61357;-72
2023/01/27 02:56:13;;;;;;;53.80;31.20;;;;;;;-0.29;81.96;100956.09;214547;1263;74958;-72
2023/01/27 03:01:07;;;;;;;52.20;32.50;;;;;;;-0.29;81.77;100960.00;214404;1264;71816;-72
2023/01/27 03:06:01;;;;;;;53.60;31.90;;;;;;;-0.29;81.84;100964.11;214574;1264;61298;-72
2023/01/27 03:10:55;;;;;;;55.40;34.00;;;;;;;-0.28;81.88;100959.92;214552;1262;61278;-72
2023/01/27 03:21:04;;;;;;;48.60;29.60;;;;;;;-0.31;81.88;100964.81;214526;1264;75507;-72
2023/01/27 03:25:57;;;;;;;51.60;31.10;;;;;;;-0.32;82.07;100963.55;214597;1264;71437;-72
2023/01/27 03:30:50;;;;;;;57.30;30.40;;;;;;;-0.32;81.98;100963.02;214630;1263;61327;-72
2023/01/27 03:35:48;;;;;;;51.20;30.90;;;;;;;-0.31;82.01;100964.49;214510;1265;66921;-72
2023/01/27 03:51:08;;;;;;;48.20;30.10;;;;;;;-0.32;82.08;100968.16;214535;1265;72643;-71
2023/01/27 03:56:02;;;;;;;53.40;30.70;;;;;;;-0.35;82.19;100968.98;214611;1264;61294;-72
2023/01/27 04:00:58;;;;;;;54.10;30.20;;;;;;;-0.38;82.23;100967.45;214622;1263;65901;-72
2023/01/27 04:16:14;;;;;;;51.70;30.80;;;;;;;-0.53;82.36;100976.71;214502;1263;134892;-72
2023/01/27 04:21:07;;;;;;;45.90;28.10;;;;;;;-0.56;82.43;100976.52;214562;1264;61886;-72
2023/01/27 04:25:59;;;;;;;48.80;28.30;;;;;;;-0.59;82.57;100978.66;214510;1263;61433;-72
2023/01/27 04:30:52;;;;;;;48.80;28.60;;;;;;;-0.62;82.63;100986.67;214508;1267;61306;-72
2023/01/27 04:35:45;;;;;;;45.60;27.10;;;;;;;-0.64;82.78;100985.54;214524;1264;61255;-72
2023/01/27 04:40:38;;;;;;;45.50;27.90;;;;;;;-0.64;82.86;100986.02;214615;1264;70492;-72
2023/01/27 04:45:31;;;;;;;43.00;26.10;;;;;;;-0.66;82.86;100996.63;214778;1264;61411;-72
2023/01/27 04:50:24;;;;;;;45.40;27.20;;;;;;;-0.66;82.97;100988.77;214575;1264;61449;-72
2023/01/27 04:55:17;;;;;;;48.30;26.10;;;;;;;-0.64;83.01;100989.59;214568;1265;61383;-72
2023/01/27 05:00:12;;;;;;;46.20;28.20;;;;;;;-0.63;83.18;100997.14;214495;1264;61367;-72
2023/01/27 05:05:09;;;;;;;47.10;27.40;;;;;;;-0.63;83.25;101002.25;214622;1264;72617;-72
2023/01/27 05:10:02;;;;;;;49.90;27.30;;;;;;;-0.68;83.02;101001.77;214554;1265;61257;-72
2023/01/27 05:14:55;;;;;;;50.30;29.70;;;;;;;-0.72;83.05;101002.48;214613;1263;61299;-72
2023/01/27 05:19:48;;;;;;;45.40;27.50;;;;;;;-0.79;83.09;101003.80;214616;1264;61266;-72
2023/01/27 05:24:40;;;;;;;41.40;25.10;;;;;;;-0.86;83.15;101011.82;214469;1264;61314;-72
2023/01/27 05:29:33;;;;;;;42.90;26.60;;;;;;;-0.95;83.11;101019.67;214643;1264;61298;-72
2023/01/27 05:34:26;;;;;;;39.80;24.60;;;;;;;-1.02;83.17;101028.23;214409;1265;61285;-72
2023/01/27 05:39:19;;;;;;;38.00;24.10;;;;;;;-1.08;83.48;101037.70;214540;1264;61244;-72
2023/01/27 05:44:12;;;;;;;46.40;25.30;;;;;;;-1.12;83.47;101032.65;214446;1263;61274;-73
2023/01/27 05:49:06;;;;;;;43.30;25.20;;;;;;;-1.18;83.53;101030.23;214400;1264;61789;-73
2023/01/27 05:54:00;;;;;;;43.70;26.00;;;;;;;-1.24;83.40;101032.38;214361;1264;73880;-73
2023/01/27 05:58:55;;;;;;;44.40;26.50;;;;;;;-1.29;83.34;101037.44;214199;1262;61277;-72
2023/01/27 06:03:48;;;;;;;45.80;27.70;;;;;;;-1.32;83.64;101040.28;214434;1262;67277;-73
2023/01/27 06:08:41;;;;;;;39.70;25.60;;;;;;;-1.33;83.87;101039.18;214298;1262;61347;-73
2023/01/27 06:13:37;;;;;;;49.40;26.70;;;;;;;-1.37;83.81;101047.45;214374;1264;73144;-73
2023/01/27 06:18:30;;;;;;;40.50;24.00;;;;;;;-1.37;84.03;101047.95;214543;1264;73707;-73
2023/01/27 06:23:23;;;;;;;45.50;24.30;;;;;;;-1.40;83.88;101058.75;214397;1263;61687;-72
2023/01/27 06:28:16;;;;;;;46.80;27.50;;;;;;;-1.40;83.96;101068.45;214689;1264;61289;-72
2023/01/27 06:33:21;;;;;;;42.10;25.50;;;;;;;-1.40;83.92;101079.19;214543;1263;61258;-72
2023/01/27 06:38:14;;;;;;;42.20;26.90;;;;;;;-1.40;83.93;101081.25;214634;1267;61328;-73
2023/01/27 06:43:13;;;;;;;46.20;28.40;;;;;;;-1.38;83.97;101084.41;214680;1263;72401;-72
2023/01/27 06:48:07;;;;;;;52.60;30.00;;;;;;;-1.36;84.12;101085.43;214655;1264;61382;-72
2023/01/27 06:53:02;;;;;;;60.90;38.40;;;;;;;-1.31;84.39;101086.13;214566;1263;65815;-72
2023/01/27 06:57:55;;;;;;;59.10;32.60;;;;;;;-1.22;84.41;101084.86;214664;1262;61225;-72
2023/01/27 07:02:49;;;;;;;42.40;28.00;;;;;;;-1.15;84.31;101088.45;214568;1264;61182;-72
2023/01/27 07:07:42;;;;;;;48.60;29.40;;;;;;;-1.06;84.21;101089.86;214592;1264;70890;-72
2023/01/27 07:12:37;;;;;;;43.40;27.50;;;;;;;-0.95;84.36;101086.36;214506;1264;61240;-72
2023/01/27 07:17:29;;;;;;;50.30;29.10;;;;;;;-0.83;84.16;101088.73;214547;1265;68144;-72
2023/01/27 07:22:22;;;;;;;48.30;29.40;;;;;;;-0.69;84.03;101091.92;214682;1265;61374;-72
2023/01/27 07:27:15;;;;;;;49.00;29.30;;;;;;;-0.53;83.76;101092.48;214687;1264;61376;-72
2023/01/27 07:32:08;;;;;;;43.20;27.10;;;;;;;-0.38;83.46;101091.08;214506;1267;61950;-72
2023/01/27 07:37:02;;;;;;;56.90;29.90;;;;;;;-0.25;83.30;101096.05;214556;1265;61296;-73
2023/01/27 07:41:56;;;;;;;39.20;24.70;;;;;;;-0.11;83.19;101098.50;214382;1264;65608;-72
2023/01/27 07:46:49;;;;;;;45.20;28.20;;;;;;;0.01;83.21;101095.06;214502;1264;61338;-73
2023/01/27 07:51:42;;;;;;;40.30;27.60;;;;;;;0.14;82.73;101098.23;214471;1264;61340;-72
2023/01/27 07:56:35;;;;;;;38.00;24.90;;;;;;;0.32;82.24;101093.09;214624;1264;61249;-73
2023/01/27 08:01:28;;;;;;;45.00;27.00;;;;;;;0.54;81.87;101093.13;214494;1264;61278;-74
2023/01/27 08:06:21;;;;;;;42.40;26.10;;;;;;;0.72;81.47;101098.73;214421;1263;61153;-74
2023/01/27 08:11:17;;;;;;;44.50;26.40;;;;;;;0.87;81.19;101101.88;214411;1264;61292;-74
2023/01/27 08:16:13;;;;;;;36.70;23.90;;;;;;;1.04;80.66;101097.81;214495;1264;74201;-74
2023/01/27 08:21:09;;;;;;;38.30;24.50;;;;;;;1.19;80.22;101097.84;214469;1264;72548;-74
2023/01/27 08:26:04;;;;;;;35.70;23.80;;;;;;;1.30;80.25;101097.63;214972;1264;61267;-74
2023/01/27 08:31:09;;;;;;;36.90;23.50;;;;;;;1.38;79.76;101097.13;214611;1264;66992;-73
2023/01/27 08:36:09;;;;;;;35.90;23.90;;;;;;;1.48;79.53;101099.95;214851;1264;61350;-73
2023/01/27 08:41:13;;;;;;;36.30;23.50;;;;;;;1.57;79.18;101103.86;214563;1264;74445;-74
2023/01/27 08:46:07;;;;;;;37.40;23.90;;;;;;;1.50;78.68;101104.17;215153;1264;73585;-75
2023/01/27 08:51:02;;;;;;;45.20;28.30;;;;;;;1.54;79.40;101102.16;214602;1264;61745;-75
2023/01/27 08:56:02;;;;;;;39.70;23.80;;;;;;;1.65;79.22;101100.21;214573;1264;67073;-74
2023/01/27 09:00:55;;;;;;;32.20;22.90;;;;;;;1.77;78.68;101100.61;214464;1264;61283;-73
2023/01/27 09:05:48;;;;;;;35.30;24.00;;;;;;;1.99;78.02;101101.69;214564;1267;73421;-73
2023/01/27 09:10:42;;;;;;;39.70;25.40;;;;;;;2.25;78.00;101105.25;214772;1264;71789;-74
2023/01/27 09:15:36;;;;;;;35.80;24.50;;;;;;;2.38;77.94;101114.69;214518;1264;61373;-74
2023/01/27 09:20:30;;;;;;;35.30;23.10;;;;;;;2.25;77.62;101119.10;214608;1264;67463;-74
2023/01/27 09:25:24;;;;;;;33.10;23.00;;;;;;;2.13;77.32;101117.54;214520;1264;61281;-75
2023/01/27 09:30:17;;;;;;;31.70;21.90;;;;;;;2.09;77.26;101116.11;214391;1264;74517;-74
2023/01/27 09:35:10;;;;;;;36.40;24.40;;;;;;;2.07;77.34;101114.31;214629;1264;61719;-74
2023/01/27 09:40:15;;;;;;;36.30;23.60;;;;;;;2.11;76.92;101111.10;214707;1265;61389;-74
2023/01/27 09:45:17;;;;;;;39.90;24.80;;;;;;;2.22;77.48;101111.77;214503;1264;66429;-74
2023/01/27 09:50:32;;;;;;;33.00;23.00;;;;;;;2.36;76.79;101103.27;214543;1264;61216;-73
2023/01/27 09:55:37;;;;;;;36.60;23.00;;;;;;;2.44;76.30;101104.04;214524;1265;75377;-75
2023/01/27 10:00:38;;;;;;;36.80;24.20;;;;;;;2.55;76.20;101109.14;214506;1267;73477;-74
2023/01/27 10:05:49;;;;;;;35.90;21.90;;;;;;;2.57;76.18;101113.68;214549;1263;61540;-75
2023/01/27 10:11:06;;;;;;;32.70;21.40;;;;;;;2.62;76.38;101115.88;214497;1265;66166;-75
2023/01/27 10:16:16;;;;;;;31.30;21.40;;;;;;;2.69;75.74;101112.09;214591;1264;61395;-74
2023/01/27 10:21:33;;;;;;;33.10;21.50;;;;;;;2.80;75.18;101115.27;214536;1265;72328;-73
2023/01/27 10:26:50;;;;;;;29.80;20.20;;;;;;;2.80;75.27;101124.34;214729;1264;73352;-75
2023/01/27 10:31:53;;;;;;;41.50;25.70;;;;;;;2.79;75.41;101125.98;214603;1264;61312;-76
2023/01/27 10:37:05;;;;;;;29.60;19.20;;;;;;;2.77;75.03;101128.12;214543;1265;67886;-74
2023/01/27 10:42:12;;;;;;;27.20;19.90;;;;;;;2.64;75.03;101130.33;214528;1264;61273;-74
2023/01/27 10:47:54;;;;;;;26.70;20.10;;;;;;;2.65;75.05;101136.55;214552;1266;74432;-74
2023/01/27 10:53:00;;;;;;;28.60;18.80;;;;;;;2.68;75.05;101147.86;214754;1265;70684;-75
2023/01/27 10:58:20;;;;;;;30.30;20.60;;;;;;;2.66;74.87;101142.30;214574;1265;61267;-73
2023/01/27 11:03:22;;;;;;;28.60;18.70;;;;;;;2.72;74.89;101141.72;214558;1264;68160;-75
2023/01/27 11:08:31;;;;;;;28.80;19.70;;;;;;;2.80;74.83;101143.52;214548;1265;61255;-74
2023/01/27 11:13:24;;;;;;;33.30;19.30;;;;;;;2.75;74.27;101137.93;214444;1265;74708;-75
2023/01/27 11:18:23;;;;;;;25.70;18.60;;;;;;;2.83;74.76;101133.96;214657;1265;73811;-75
2023/01/27 11:23:23;;;;;;;23.00;16.80;;;;;;;3.00;74.46;101126.13;214533;1265;61391;-74
2023/01/27 11:29:05;;;;;;;26.10;16.70;;;;;;;3.10;74.04;101115.33;214424;1264;65886;-75
2023/01/27 11:34:19;;;;;;;26.90;17.60;;;;;;;3.09;73.88;101113.40;214537;1264;61332;-75
2023/01/27 11:39:15;;;;;;;49.50;22.50;;;;;;;2.99;73.58;101111.52;214548;1263;75456;-75
2023/01/27 11:44:22;;;;;;;27.60;18.80;;;;;;;2.99;73.89;101107.93;214551;1262;72502;-74
2023/01/27 11:49:22;;;;;;;25.20;17.00;;;;;;;3.02;73.42;101103.96;214512;1265;61389;-74
2023/01/27 11:54:23;;;;;;;30.70;18.70;;;;;;;3.10;73.57;101102.17;214516;1265;67683;-73
2023/01/27 11:59:23;;;;;;;22.90;16.00;;;;;;;3.13;73.13;101099.92;214506;1264;61102;-73
2023/01/27 12:04:38;;;;;;;27.70;19.00;;;;;;;3.17;73.28;101099.42;214683;1265;73412;-73
2023/01/27 12:09:42;;;;;;;25.10;17.20;;;;;;;3.31;73.00;101101.56;214577;1265;73748;-74
2023/01/27 12:14:35;;;;;;;25.90;15.40;;;;;;;3.39;72.43;101094.96;214674;1264;61133;-73
2023/01/27 12:19:34;;;;;;;22.70;15.90;;;;;;;3.57;71.95;101088.66;214614;1264;61295;-73
2023/01/27 12:24:34;;;;;;;23.60;15.80;;;;;;;3.73;71.97;101086.95;214613;1264;61675;-74
2023/01/27 12:29:41;;;;;;;23.80;16.30;;;;;;;3.88;71.95;101088.35;214647;1265;74799;-73
2023/01/27 12:34:37;;;;;;;23.10;15.20;;;;;;;3.95;71.78;101087.50;214579;1264;71723;-73
2023/01/27 12:39:39;;;;;;;22.00;16.00;;;;;;;3.93;71.51;101090.31;214512;1265;61902;-73
2023/01/27 12:44:42;;;;;;;22.10;15.20;;;;;;;3.85;71.26;101097.80;215484;1264;65798;-73
2023/01/27 12:49:39;;;;;;;20.90;15.40;;;;;;;3.72;71.51;101106.42;217065;1264;59310;-73
2023/01/27 12:54:33;;;;;;;22.40;16.60;;;;;;;3.56;71.44;101109.19;215340;1265;74431;-73
2023/01/27 12:59:26;;;;;;;24.90;16.70;;;;;;;3.36;71.43;101113.29;214552;1265;70854;-73
2023/01/27 13:04:22;;;;;;;27.10;17.30;;;;;;;3.15;71.98;101108.94;214507;1265;61281;-72
2023/01/27 13:09:23;;;;;;;26.40;19.20;;;;;;;3.05;72.53;101102.93;214578;1266;65385;-73
2023/01/27 13:14:19;;;;;;;30.10;20.40;;;;;;;3.06;72.67;101105.21;214490;1264;61375;-72
2023/01/27 13:19:18;;;;;;;29.10;19.50;;;;;;;3.00;72.86;101102.70;214443;1264;73056;-73
2023/01/27 13:24:18;;;;;;;30.40;19.90;;;;;;;2.97;73.44;101103.17;214578;1265;72376;-73
2023/01/27 13:29:39;;;;;;;28.80;20.20;;;;;;;2.94;73.60;101107.30;214556;1264;61407;-73
2023/01/27 13:34:43;;;;;;;33.40;22.10;;;;;;;2.78;73.53;101109.53;214458;1265;66936;-72
2023/01/27 13:39:52;;;;;;;32.50;21.50;;;;;;;2.69;73.98;101112.14;214467;1266;61266;-73
2023/01/27 13:45:12;;;;;;;33.30;22.30;;;;;;;2.56;73.95;101114.69;214583;1265;73989;-73
2023/01/27 13:50:22;;;;;;;33.00;23.10;;;;;;;2.42;74.37;101121.73;214439;1265;72944;-72
2023/01/27 13:55:16;;;;;;;38.80;24.00;;;;;;;2.30;75.07;101124.33;214634;1264;61325;-72
2023/01/27 14:00:12;;;;;;;41.90;25.50;;;;;;;2.16;75.04;101129.17;214541;1265;67912;-73
2023/01/27 14:05:42;;;;;;;41.50;23.90;;;;;;;2.01;75.59;101132.25;214619;1265;60846;-73
2023/01/27 14:10:55;;;;;;;38.40;25.30;;;;;;;1.91;75.89;101133.20;214643;1265;72064;-75
2023/01/27 14:15:54;;;;;;;44.50;26.40;;;;;;;1.86;76.70;101133.95;214584;1264;72725;-73
2023/01/27 14:20:59;;;;;;;41.80;24.70;;;;;;;1.79;76.40;101138.50;214627;1264;61225;-73
2023/01/27 14:26:12;;;;;;;49.40;26.80;;;;;;;1.68;76.91;101142.44;214532;1264;68305;-74
2023/01/27 14:31:17;;;;;;;45.30;26.00;;;;;;;1.64;77.19;101145.45;214662;1263;61317;-73
2023/01/27 14:36:27;;;;;;;50.60;27.40;;;;;;;1.60;77.71;101154.63;214497;1265;75450;-75
2023/01/27 14:41:48;;;;;;;49.00;28.20;;;;;;;1.54;77.87;101161.94;214525;1265;72499;-74
2023/01/27 14:46:51;;;;;;;49.10;27.60;;;;;;;1.48;78.03;101158.70;214521;1266;61283;-74
2023/01/27 14:52:10;;;;;;;44.40;26.60;;;;;;;1.37;78.20;101155.11;214452;1265;68014;-74
2023/01/27 14:57:45;;;;;;;53.50;28.50;;;;;;;1.31;78.67;101157.98;214537;1268;61906;-73
2023/01/27 15:03:00;;;;;;;52.20;28.60;;;;;;;1.24;78.85;101157.89;214494;1265;75515;-73
2023/01/27 15:08:25;;;;;;;54.00;28.90;;;;;;;1.15;78.73;101152.05;214534;1267;73828;-72
2023/01/27 15:13:49;;;;;;;52.20;29.50;;;;;;;1.08;78.99;101153.69;214551;1267;61291;-71
2023/01/27 15:18:45;;;;;;;50.60;27.90;;;;;;;1.02;78.91;101155.88;214486;1263;65983;-74
2023/01/27 15:23:47;;;;;;;49.70;28.00;;;;;;;0.97;79.07;101154.38;214735;1267;61388;-74
2023/01/27 15:28:42;;;;;;;49.70;27.50;;;;;;;0.91;79.11;101157.42;214541;1268;74584;-74
2023/01/27 15:33:57;;;;;;;53.10;28.00;;;;;;;0.89;79.07;101165.84;214429;1264;72648;-74
2023/01/27 15:39:02;;;;;;;49.70;26.00;;;;;;;0.87;79.39;101170.45;214617;1265;61241;-74
2023/01/27 15:44:16;;;;;;;55.90;28.90;;;;;;;0.87;79.72;101175.05;214458;1267;67091;-74
2023/01/27 15:49:18;;;;;;;51.40;28.70;;;;;;;0.87;79.43;101178.84;214456;1264;61268;-74
2023/01/27 15:54:19;;;;;;;52.70;28.10;;;;;;;0.86;79.78;101182.18;214459;1264;75493;-73
2023/01/27 15:59:47;;;;;;;55.50;30.30;;;;;;;0.85;79.70;101182.43;214616;1268;73502;-75
2023/01/27 16:05:03;;;;;;;55.10;27.20;;;;;;;0.82;79.72;101181.57;214524;1264;61371;-75
2023/01/27 16:09:59;;;;;;;55.20;28.30;;;;;;;0.78;79.50;101180.98;214625;1263;65715;-73
2023/01/27 16:15:00;;;;;;;47.60;27.70;;;;;;;0.75;79.76;101178.26;214550;1264;61303;-73
2023/01/27 16:20:19;;;;;;;60.50;31.90;;;;;;;0.75;80.18;101180.30;214447;1268;166772;-73
2023/01/27 16:25:26;;;;;;;58.70;31.60;;;;;;;0.75;80.28;101189.00;214567;1268;73441;-74
2023/01/27 16:30:41;;;;;;;52.40;29.50;;;;;;;0.75;79.99;101194.65;214493;1265;61399;-75
2023/01/27 16:35:49;;;;;;;72.30;37.10;;;;;;;0.76;80.12;101196.22;214539;1267;65941;-77
2023/01/27 16:40:47;;;;;;;;;;;;;;;0.74;80.26;101195.77;214509;1263;61271;-75
2023/01/27 16:45:50;;;;;;;69.50;40.10;;;;;;;0.73;80.23;101194.34;215436;1263;74544;-78
2023/01/27 16:50:44;;;;;;;76.30;44.10;;;;;;;0.74;80.40;101197.46;214500;1264;73571;-74
2023/01/27 16:55:37;;;;;;;79.90;42.90;;;;;;;0.75;80.73;101200.59;214868;1264;61468;-74
2023/01/27 17:00:34;;;;;;;128.60;71.70;;;;;;;0.75;80.55;101193.98;214524;1267;66947;-74
2023/01/27 17:05:27;;;;;;;79.10;40.20;;;;;;;0.76;80.73;101194.33;214464;1266;61474;-74
2023/01/27 17:10:20;;;;;;;69.90;38.80;;;;;;;0.76;80.79;101197.42;214619;1263;74500;-73
2023/01/27 17:15:40;;;;;;;78.40;41.80;;;;;;;0.72;80.52;101196.35;214567;1264;71185;-74
2023/01/27 17:20:38;;;;;;;70.90;38.80;;;;;;;0.71;80.72;101200.02;214634;1264;61265;-74
2023/01/27 17:25:37;;;;;;;69.60;38.50;;;;;;;0.71;80.63;101204.96;214464;1264;67062;-74
2023/01/27 17:30:38;;;;;;;63.00;35.90;;;;;;;0.72;81.14;101203.17;214679;1264;61372;-74
2023/01/27 17:35:35;;;;;;;60.00;35.10;;;;;;;0.73;80.99;101203.22;214581;1264;74653;-73
2023/01/27 17:40:28;;;;;;;64.90;36.20;;;;;;;0.73;81.27;101206.44;214529;1264;72710;-73
2023/01/27 17:45:30;;;;;;;67.50;37.20;;;;;;;0.73;81.13;101204.90;214693;1264;61351;-73
2023/01/27 17:50:27;;;;;;;72.00;37.10;;;;;;;0.74;81.17;101208.20;214767;1264;66805;-73
2023/01/27 17:55:23;;;;;;;64.80;36.30;;;;;;;0.73;81.35;101207.45;215285;1264;60906;-73
2023/01/27 18:00:30;;;;;;;70.20;40.80;;;;;;;0.71;81.25;101208.05;214666;1264;73421;-74
2023/01/27 18:05:29;;;;;;;69.60;39.90;;;;;;;0.69;81.45;101214.71;214515;1264;72432;-73
2023/01/27 18:10:24;;;;;;;75.90;43.10;;;;;;;0.66;81.50;101221.71;214611;1264;61365;-74
2023/01/27 18:15:33;;;;;;;80.40;44.50;;;;;;;0.61;81.58;101222.70;214471;1264;65551;-73
2023/01/27 18:20:32;;;;;;;74.60;41.30;;;;;;;0.58;81.83;101226.63;214677;1264;61141;-73
2023/01/27 18:25:25;;;;;;;75.40;44.40;;;;;;;0.55;81.72;101230.21;214504;1264;75497;-74
2023/01/27 18:30:22;;;;;;;70.90;40.90;;;;;;;0.52;82.03;101229.10;214489;1263;73058;-73
2023/01/27 18:35:26;;;;;;;84.30;44.60;;;;;;;0.49;81.94;101228.92;214444;1267;61296;-74
2023/01/27 18:40:27;;;;;;;85.00;46.90;;;;;;;0.46;81.94;101232.46;215078;1264;68224;-73
2023/01/27 18:45:20;;;;;;;79.50;46.20;;;;;;;0.44;82.27;101237.80;214475;1264;61373;-73
2023/01/27 18:50:17;;;;;;;74.90;42.10;;;;;;;0.42;82.31;101239.06;214470;1264;61403;-73
2023/01/27 18:55:25;;;;;;;78.20;44.70;;;;;;;0.41;82.75;101250.41;214492;1264;73271;-73
2023/01/27 19:00:21;;;;;;;77.80;42.50;;;;;;;0.39;82.65;101250.80;214444;1264;61455;-73
2023/01/27 19:05:29;;;;;;;81.10;46.50;;;;;;;0.38;82.72;101254.82;214445;1264;67021;-73
2023/01/27 19:10:27;;;;;;;;;;;;;;;0.40;82.89;101253.73;214486;1264;61281;-73
2023/01/27 19:15:22;;;;;;;;;;;;;;;0.41;82.66;101264.70;214550;1264;74577;-73
2023/01/27 19:20:20;;;;;;;87.10;49.00;;;;;;;0.40;82.93;101267.41;214466;1264;71908;-73
2023/01/27 19:25:13;;;;;;;96.40;52.90;;;;;;;0.40;83.05;101272.70;214456;1264;61266;-73
2023/01/27 19:30:35;;;;;;;115.00;61.20;;;;;;;0.38;83.40;101280.07;214579;1263;65720;-73
2023/01/27 19:35:31;;;;;;;91.10;48.50;;;;;;;0.38;83.48;101282.63;214437;1264;63086;-73
2023/01/27 19:40:26;;;;;;;113.20;68.30;;;;;;;0.36;83.41;101284.36;214506;1264;74433;-73
2023/01/27 19:45:21;;;;;;;86.70;45.80;;;;;;;0.35;83.53;101288.25;214588;1264;71453;-74
2023/01/27 19:50:31;;;;;;;88.10;48.60;;;;;;;0.34;83.27;101289.17;214573;1263;61843;-73
2023/01/27 19:55:25;;;;;;;84.40;45.50;;;;;;;0.31;83.34;101290.52;214569;1265;66851;-73
2023/01/27 20:00:33;;;;;;;76.80;42.40;;;;;;;0.31;83.52;101301.08;214535;1264;61255;-73
2023/01/27 20:05:28;;;;;;;76.10;41.50;;;;;;;0.31;83.31;101302.83;214530;1264;75724;-73
2023/01/27 20:10:31;;;;;;;82.30;42.10;;;;;;;0.31;83.67;101306.26;214476;1264;71585;-73
2023/01/27 20:15:28;;;;;;;76.10;41.60;;;;;;;0.33;83.70;101311.83;214595;1264;61234;-73
2023/01/27 20:20:22;;;;;;;75.80;40.50;;;;;;;0.34;83.92;101319.38;214505;1263;66540;-73
2023/01/27 20:25:18;;;;;;;79.10;41.50;;;;;;;0.35;83.61;101323.58;214542;1265;61276;-73
2023/01/27 20:30:15;;;;;;;89.30;43.80;;;;;;;0.34;83.46;101324.67;214586;1264;74522;-73
2023/01/27 20:35:08;;;;;;;83.20;44.10;;;;;;;0.34;83.67;101331.84;214427;1264;72478;-73
2023/01/27 20:40:01;;;;;;;78.90;41.40;;;;;;;0.34;83.63;101328.92;214493;1264;61417;-73
2023/01/27 20:44:54;;;;;;;79.50;41.80;;;;;;;0.35;83.97;101328.68;214520;1262;61393;-73
2023/01/27 20:49:47;;;;;;;81.70;42.40;;;;;;;0.35;83.64;101325.27;214570;1267;61234;-74
2023/01/27 20:54:40;;;;;;;84.60;46.50;;;;;;;0.36;83.68;101324.48;214490;1264;61921;-73
2023/01/27 20:59:33;;;;;;;118.10;65.70;;;;;;;0.37;83.94;101328.28;214475;1264;61388;-73
2023/01/27 21:04:25;;;;;;;94.50;50.80;;;;;;;0.36;83.75;101333.88;214748;1263;61346;-73
2023/01/27 21:09:18;;;;;;;107.30;57.50;;;;;;;0.37;83.76;101328.48;214509;1265;61269;-73
2023/01/27 21:14:11;;;;;;;110.50;55.30;;;;;;;0.37;83.78;101326.74;214461;1267;61368;-73
2023/01/27 21:19:04;;;;;;;84.50;43.70;;;;;;;0.36;83.78;101326.52;214434;1264;61401;-73
2023/01/27 21:23:59;;;;;;;86.00;44.70;;;;;;;0.36;84.32;101324.46;214462;1264;61372;-73
2023/01/27 21:28:53;;;;;;;77.40;42.90;;;;;;;0.35;84.27;101321.02;214617;1264;61337;-73
2023/01/27 21:33:46;;;;;;;81.40;42.40;;;;;;;0.36;83.97;101319.21;214538;1264;67900;-73
2023/01/27 21:38:40;;;;;;;83.00;43.40;;;;;;;0.36;84.30;101319.71;214491;1264;61435;-74
2023/01/27 21:48:43;;;;;;;78.60;42.20;;;;;;;0.36;84.24;101318.98;214507;1264;72756;-73
2023/01/27 21:53:36;;;;;;;90.30;47.20;;;;;;;0.35;84.13;101318.77;214548;1267;61099;-73
2023/01/27 21:58:29;;;;;;;92.10;50.70;;;;;;;0.34;84.45;101316.17;214497;1264;61413;-73
2023/01/27 22:03:22;;;;;;;84.70;45.80;;;;;;;0.34;84.43;101315.33;214464;1265;61967;-73
2023/01/27 22:08:15;;;;;;;84.50;46.90;;;;;;;0.35;84.44;101315.34;214526;1264;74932;-73
2023/01/27 22:13:09;;;;;;;78.30;41.20;;;;;;;0.35;84.53;101308.50;214462;1264;61237;-73
2023/01/27 22:18:02;;;;;;;87.30;44.40;;;;;;;0.34;84.71;101303.19;214472;1264;61157;-73
2023/01/27 22:22:55;;;;;;;76.90;41.20;;;;;;;0.35;84.54;101301.35;214649;1264;61385;-73
2023/01/27 22:27:48;;;;;;;77.70;41.70;;;;;;;0.35;84.49;101298.63;214547;1263;61237;-72
2023/01/27 22:32:41;;;;;;;82.50;42.40;;;;;;;0.35;84.90;101295.07;214406;1265;61286;-73
2023/01/27 22:37:36;;;;;;;77.90;44.00;;;;;;;0.34;84.48;101297.38;214364;1264;61475;-72
2023/01/27 22:42:30;;;;;;;78.80;40.30;;;;;;;0.34;84.86;101301.81;214412;1264;61287;-73
2023/01/27 22:47:23;;;;;;;85.50;41.50;;;;;;;0.34;84.89;101302.83;214258;1262;67984;-72
2023/01/27 22:52:16;;;;;;;86.60;45.80;;;;;;;0.34;84.67;101296.89;214069;1264;61521;-73
2023/01/27 22:57:09;;;;;;;76.80;41.00;;;;;;;0.34;84.87;101290.73;214161;1264;75451;-73
2023/01/27 23:02:02;;;;;;;73.50;39.30;;;;;;;0.34;84.94;101290.57;214158;1264;61996;-72
2023/01/27 23:06:55;;;;;;;72.50;38.60;;;;;;;0.34;84.85;101289.19;214291;1264;61237;-72
2023/01/27 23:11:48;;;;;;;81.30;41.30;;;;;;;0.34;84.93;101288.17;214326;1265;61668;-72
2023/01/27 23:16:40;;;;;;;69.60;38.40;;;;;;;0.34;85.28;101290.52;214422;1264;61369;-72